sensor_id;sensor_type;location;lat;lon;timestamp;temperature;humidity
66522;SHT31;53349;53.538;8.584;2022-12-18T00:00:43;-3.97;81.86
66522;SHT31;53349;53.538;8.584;2022-12-18T00:03:09;-4.02;82.01
66522;SHT31;53349;53.538;8.584;2022-12-18T00:05:35;-3.97;82.06
66522;SHT31;53349;53.538;8.584;2022-12-18T00:08:01;-4.04;82.27
66522;SHT31;53349;53.538;8.584;2022-12-18T00:10:27;-4.03;82.38
66522;SHT31;53349;53.538;8.584;2022-12-18T00:12:53;-4.14;82.52
66522;SHT31;53349;53.538;8.584;2022-12-18T00:15:18;-4.14;82.81
66522;SHT31;53349;53.538;8.584;2022-12-18T00:17:44;-4.20;82.99
66522;SHT31;53349;53.538;8.584;2022-12-18T00:20:09;-4.14;83.03
66522;SHT31;53349;53.538;8.584;2022-12-18T00:22:35;-4.10;82.96
66522;SHT31;53349;53.538;8.584;2022-12-18T00:25:00;-4.09;83.12
66522;SHT31;53349;53.538;8.584;2022-12-18T00:27:26;-4.09;83.09
66522;SHT31;53349;53.538;8.584;2022-12-18T00:29:51;-4.10;83.18
66522;SHT31;53349;53.538;8.584;2022-12-18T00:32:17;-4.04;83.19
66522;SHT31;53349;53.538;8.584;2022-12-18T00:34:42;-4.11;83.13
66522;SHT31;53349;53.538;8.584;2022-12-18T00:37:08;-4.17;83.19
66522;SHT31;53349;53.538;8.584;2022-12-18T00:39:33;-4.17;83.11
66522;SHT31;53349;53.538;8.584;2022-12-18T00:41:59;-4.17;83.03
66522;SHT31;53349;53.538;8.584;2022-12-18T00:44:43;-4.23;83.07
66522;SHT31;53349;53.538;8.584;2022-12-18T00:47:08;-4.18;83.11
66522;SHT31;53349;53.538;8.584;2022-12-18T00:49:34;-4.27;83.09
66522;SHT31;53349;53.538;8.584;2022-12-18T00:51:59;-4.25;83.03
66522;SHT31;53349;53.538;8.584;2022-12-18T00:54:24;-4.31;83.01
66522;SHT31;53349;53.538;8.584;2022-12-18T00:56:50;-4.37;83.00
66522;SHT31;53349;53.538;8.584;2022-12-18T00:59:17;-4.31;83.06
66522;SHT31;53349;53.538;8.584;2022-12-18T01:01:43;-4.30;82.94
66522;SHT31;53349;53.538;8.584;2022-12-18T01:04:08;-4.27;82.90
66522;SHT31;53349;53.538;8.584;2022-12-18T01:06:34;-4.28;82.84
66522;SHT31;53349;53.538;8.584;2022-12-18T01:09:00;-4.23;82.90
66522;SHT31;53349;53.538;8.584;2022-12-18T01:11:25;-4.20;82.74
66522;SHT31;53349;53.538;8.584;2022-12-18T01:13:52;-4.21;82.75
66522;SHT31;53349;53.538;8.584;2022-12-18T01:16:19;-4.21;82.76
66522;SHT31;53349;53.538;8.584;2022-12-18T01:18:45;-4.20;82.70
66522;SHT31;53349;53.538;8.584;2022-12-18T01:21:13;-4.30;82.49
66522;SHT31;53349;53.538;8.584;2022-12-18T01:23:39;-4.33;82.36
66522;SHT31;53349;53.538;8.584;2022-12-18T01:26:10;-4.35;82.35
66522;SHT31;53349;53.538;8.584;2022-12-18T01:28:36;-4.37;82.31
66522;SHT31;53349;53.538;8.584;2022-12-18T01:31:32;-4.31;82.19
66522;SHT31;53349;53.538;8.584;2022-12-18T01:33:59;-4.30;82.10
66522;SHT31;53349;53.538;8.584;2022-12-18T01:36:31;-4.28;82.21
66522;SHT31;53349;53.538;8.584;2022-12-18T01:38:59;-4.31;82.40
66522;SHT31;53349;53.538;8.584;2022-12-18T01:41:29;-4.30;82.57
66522;SHT31;53349;53.538;8.584;2022-12-18T01:49:53;-4.33;82.58
66522;SHT31;53349;53.538;8.584;2022-12-18T01:52:20;-4.40;82.47
66522;SHT31;53349;53.538;8.584;2022-12-18T01:54:47;-4.40;82.33
66522;SHT31;53349;53.538;8.584;2022-12-18T01:57:13;-4.33;82.37
66522;SHT31;53349;53.538;8.584;2022-12-18T01:59:40;-4.30;82.12
66522;SHT31;53349;53.538;8.584;2022-12-18T02:02:08;-4.40;81.78
66522;SHT31;53349;53.538;8.584;2022-12-18T02:04:33;-4.37;81.81
66522;SHT31;53349;53.538;8.584;2022-12-18T02:07:14;-4.31;81.56
66522;SHT31;53349;53.538;8.584;2022-12-18T02:09:47;-4.31;80.89
66522;SHT31;53349;53.538;8.584;2022-12-18T02:12:22;-4.34;80.43
66522;SHT31;53349;53.538;8.584;2022-12-18T02:14:50;-4.37;80.00
66522;SHT31;53349;53.538;8.584;2022-12-18T02:17:20;-4.33;79.78
66522;SHT31;53349;53.538;8.584;2022-12-18T02:25:51;-4.40;79.04
66522;SHT31;53349;53.538;8.584;2022-12-18T02:28:20;-4.52;78.91
66522;SHT31;53349;53.538;8.584;2022-12-18T02:30:49;-4.55;79.14
66522;SHT31;53349;53.538;8.584;2022-12-18T02:33:18;-4.58;79.15
66522;SHT31;53349;53.538;8.584;2022-12-18T02:35:45;-4.65;79.14
66522;SHT31;53349;53.538;8.584;2022-12-18T02:38:12;-4.65;79.11
66522;SHT31;53349;53.538;8.584;2022-12-18T02:40:39;-4.71;79.09
66522;SHT31;53349;53.538;8.584;2022-12-18T02:43:15;-4.65;79.28
66522;SHT31;53349;53.538;8.584;2022-12-18T02:45:53;-4.66;79.17
66522;SHT31;53349;53.538;8.584;2022-12-18T02:48:26;-4.72;79.06
66522;SHT31;53349;53.538;8.584;2022-12-18T02:51:23;-4.79;78.96
66522;SHT31;53349;53.538;8.584;2022-12-18T02:53:58;-4.81;78.99
66522;SHT31;53349;53.538;8.584;2022-12-18T02:56:35;-4.83;78.87
66522;SHT31;53349;53.538;8.584;2022-12-18T02:59:07;-4.79;78.73
66522;SHT31;53349;53.538;8.584;2022-12-18T03:04:18;-4.76;78.47
66522;SHT31;53349;53.538;8.584;2022-12-18T03:06:49;-4.75;78.50
66522;SHT31;53349;53.538;8.584;2022-12-18T03:09:21;-4.76;78.51
66522;SHT31;53349;53.538;8.584;2022-12-18T03:11:55;-4.69;78.60
66522;SHT31;53349;53.538;8.584;2022-12-18T03:14:41;-4.69;78.52
66522;SHT31;53349;53.538;8.584;2022-12-18T03:17:13;-4.71;78.42
66522;SHT31;53349;53.538;8.584;2022-12-18T03:19:41;-4.71;78.44
66522;SHT31;53349;53.538;8.584;2022-12-18T03:22:09;-4.75;78.44
66522;SHT31;53349;53.538;8.584;2022-12-18T03:24:36;-4.75;78.40
66522;SHT31;53349;53.538;8.584;2022-12-18T03:27:07;-4.75;78.38
66522;SHT31;53349;53.538;8.584;2022-12-18T03:29:38;-4.78;78.39
66522;SHT31;53349;53.538;8.584;2022-12-18T03:32:09;-4.83;78.32
66522;SHT31;53349;53.538;8.584;2022-12-18T03:34:38;-4.85;78.32
66522;SHT31;53349;53.538;8.584;2022-12-18T03:37:05;-4.92;78.36
66522;SHT31;53349;53.538;8.584;2022-12-18T03:39:31;-4.92;78.38
66522;SHT31;53349;53.538;8.584;2022-12-18T03:42:30;-4.97;78.42
66522;SHT31;53349;53.538;8.584;2022-12-18T03:45:05;-4.99;78.54
66522;SHT31;53349;53.538;8.584;2022-12-18T03:48:19;-5.05;78.55
66522;SHT31;53349;53.538;8.584;2022-12-18T03:50:38;-5.05;78.64
66522;SHT31;53349;53.538;8.584;2022-12-18T03:55:53;-5.09;78.87
66522;SHT31;53349;53.538;8.584;2022-12-18T03:58:24;-5.16;78.94
66522;SHT31;53349;53.538;8.584;2022-12-18T04:00:52;-5.12;78.91
66522;SHT31;53349;53.538;8.584;2022-12-18T04:03:20;-5.09;78.84
66522;SHT31;53349;53.538;8.584;2022-12-18T04:05:48;-5.17;78.87
66522;SHT31;53349;53.538;8.584;2022-12-18T04:08:16;-5.16;78.96
66522;SHT31;53349;53.538;8.584;2022-12-18T04:10:42;-5.17;79.01
66522;SHT31;53349;53.538;8.584;2022-12-18T04:13:09;-5.16;79.06
66522;SHT31;53349;53.538;8.584;2022-12-18T04:15:36;-5.16;79.10
66522;SHT31;53349;53.538;8.584;2022-12-18T04:18:02;-5.16;79.19
66522;SHT31;53349;53.538;8.584;2022-12-18T04:20:29;-5.10;79.21
66522;SHT31;53349;53.538;8.584;2022-12-18T04:22:55;-5.12;79.21
66522;SHT31;53349;53.538;8.584;2022-12-18T04:25:20;-5.10;79.17
66522;SHT31;53349;53.538;8.584;2022-12-18T04:27:46;-5.07;79.22
66522;SHT31;53349;53.538;8.584;2022-12-18T04:30:11;-5.05;79.08
66522;SHT31;53349;53.538;8.584;2022-12-18T04:32:37;-5.05;79.01
66522;SHT31;53349;53.538;8.584;2022-12-18T04:35:03;-5.07;78.90
66522;SHT31;53349;53.538;8.584;2022-12-18T04:37:29;-5.13;78.89
66522;SHT31;53349;53.538;8.584;2022-12-18T04:39:55;-5.10;78.84
66522;SHT31;53349;53.538;8.584;2022-12-18T04:42:20;-5.13;78.79
66522;SHT31;53349;53.538;8.584;2022-12-18T04:44:46;-5.14;78.75
66522;SHT31;53349;53.538;8.584;2022-12-18T04:47:11;-5.14;78.74
66522;SHT31;53349;53.538;8.584;2022-12-18T04:49:37;-5.19;78.66
66522;SHT31;53349;53.538;8.584;2022-12-18T04:52:02;-5.16;78.66
66522;SHT31;53349;53.538;8.584;2022-12-18T04:54:27;-5.13;78.60
66522;SHT31;53349;53.538;8.584;2022-12-18T04:56:53;-5.09;78.64
66522;SHT31;53349;53.538;8.584;2022-12-18T04:59:18;-5.10;78.60
66522;SHT31;53349;53.538;8.584;2022-12-18T05:01:44;-5.05;78.57
66522;SHT31;53349;53.538;8.584;2022-12-18T05:04:10;-5.05;78.47
66522;SHT31;53349;53.538;8.584;2022-12-18T05:06:36;-5.05;78.34
66522;SHT31;53349;53.538;8.584;2022-12-18T05:09:01;-5.00;78.23
66522;SHT31;53349;53.538;8.584;2022-12-18T05:11:27;-5.03;78.12
66522;SHT31;53349;53.538;8.584;2022-12-18T05:13:52;-5.03;78.01
66522;SHT31;53349;53.538;8.584;2022-12-18T05:16:17;-5.03;78.00
66522;SHT31;53349;53.538;8.584;2022-12-18T05:18:43;-5.09;77.97
66522;SHT31;53349;53.538;8.584;2022-12-18T05:21:08;-5.14;77.95
66522;SHT31;53349;53.538;8.584;2022-12-18T05:23:34;-5.14;77.95
66522;SHT31;53349;53.538;8.584;2022-12-18T05:26:03;-5.13;77.86
66522;SHT31;53349;53.538;8.584;2022-12-18T05:28:30;-5.13;77.83
66522;SHT31;53349;53.538;8.584;2022-12-18T05:31:02;-5.16;77.87
66522;SHT31;53349;53.538;8.584;2022-12-18T05:33:31;-5.17;77.88
66522;SHT31;53349;53.538;8.584;2022-12-18T05:36:02;-5.10;77.97
66522;SHT31;53349;53.538;8.584;2022-12-18T05:38:30;-5.10;77.91
66522;SHT31;53349;53.538;8.584;2022-12-18T05:40:56;-5.13;77.83
66522;SHT31;53349;53.538;8.584;2022-12-18T05:43:24;-5.14;77.89
66522;SHT31;53349;53.538;8.584;2022-12-18T05:45:50;-5.12;77.81
66522;SHT31;53349;53.538;8.584;2022-12-18T05:48:16;-5.12;77.75
66522;SHT31;53349;53.538;8.584;2022-12-18T05:50:44;-5.17;77.61
66522;SHT31;53349;53.538;8.584;2022-12-18T05:53:14;-5.22;77.58
66522;SHT31;53349;53.538;8.584;2022-12-18T05:55:41;-5.20;77.54
66522;SHT31;53349;53.538;8.584;2022-12-18T05:58:08;-5.20;77.54
66522;SHT31;53349;53.538;8.584;2022-12-18T06:00:35;-5.12;77.64
66522;SHT31;53349;53.538;8.584;2022-12-18T06:03:01;-5.13;77.57
66522;SHT31;53349;53.538;8.584;2022-12-18T06:05:27;-5.14;77.47
66522;SHT31;53349;53.538;8.584;2022-12-18T06:07:54;-5.16;77.51
66522;SHT31;53349;53.538;8.584;2022-12-18T06:10:19;-5.13;77.49
66522;SHT31;53349;53.538;8.584;2022-12-18T06:12:45;-5.17;77.42
66522;SHT31;53349;53.538;8.584;2022-12-18T06:15:10;-5.17;77.51
66522;SHT31;53349;53.538;8.584;2022-12-18T06:17:36;-5.22;77.65
66522;SHT31;53349;53.538;8.584;2022-12-18T06:20:04;-5.19;77.63
66522;SHT31;53349;53.538;8.584;2022-12-18T06:22:33;-5.14;77.60
66522;SHT31;53349;53.538;8.584;2022-12-18T06:24:58;-5.19;77.50
66522;SHT31;53349;53.538;8.584;2022-12-18T06:27:24;-5.14;77.52
66522;SHT31;53349;53.538;8.584;2022-12-18T06:29:50;-5.13;77.40
66522;SHT31;53349;53.538;8.584;2022-12-18T06:32:15;-5.16;77.20
66522;SHT31;53349;53.538;8.584;2022-12-18T06:34:41;-5.23;77.19
66522;SHT31;53349;53.538;8.584;2022-12-18T06:37:06;-5.22;77.20
66522;SHT31;53349;53.538;8.584;2022-12-18T06:39:32;-5.14;77.17
66522;SHT31;53349;53.538;8.584;2022-12-18T06:41:57;-5.23;77.11
66522;SHT31;53349;53.538;8.584;2022-12-18T06:44:22;-5.24;77.09
66522;SHT31;53349;53.538;8.584;2022-12-18T06:46:48;-5.22;77.15
66522;SHT31;53349;53.538;8.584;2022-12-18T06:49:13;-5.23;77.12
66522;SHT31;53349;53.538;8.584;2022-12-18T06:51:39;-5.20;77.26
66522;SHT31;53349;53.538;8.584;2022-12-18T06:54:05;-5.23;77.18
66522;SHT31;53349;53.538;8.584;2022-12-18T06:56:30;-5.31;77.10
66522;SHT31;53349;53.538;8.584;2022-12-18T06:58:56;-5.28;77.13
66522;SHT31;53349;53.538;8.584;2022-12-18T07:01:22;-5.36;77.14
66522;SHT31;53349;53.538;8.584;2022-12-18T07:03:51;-5.34;77.15
66522;SHT31;53349;53.538;8.584;2022-12-18T07:06:19;-5.34;77.17
66522;SHT31;53349;53.538;8.584;2022-12-18T07:08:46;-5.38;77.22
66522;SHT31;53349;53.538;8.584;2022-12-18T07:11:11;-5.36;77.24
66522;SHT31;53349;53.538;8.584;2022-12-18T07:13:37;-5.36;77.20
66522;SHT31;53349;53.538;8.584;2022-12-18T07:16:14;-5.37;77.20
66522;SHT31;53349;53.538;8.584;2022-12-18T07:18:40;-5.36;77.28
66522;SHT31;53349;53.538;8.584;2022-12-18T07:21:07;-5.31;77.12
66522;SHT31;53349;53.538;8.584;2022-12-18T07:23:34;-5.28;76.96
66522;SHT31;53349;53.538;8.584;2022-12-18T07:26:06;-5.28;76.98
66522;SHT31;53349;53.538;8.584;2022-12-18T07:28:33;-5.31;76.94
66522;SHT31;53349;53.538;8.584;2022-12-18T07:31:03;-5.27;76.98
66522;SHT31;53349;53.538;8.584;2022-12-18T07:33:28;-5.23;76.87
66522;SHT31;53349;53.538;8.584;2022-12-18T07:35:54;-5.24;76.77
66522;SHT31;53349;53.538;8.584;2022-12-18T07:38:19;-5.26;76.73
66522;SHT31;53349;53.538;8.584;2022-12-18T07:40:45;-5.23;76.67
66522;SHT31;53349;53.538;8.584;2022-12-18T07:43:10;-5.20;76.64
66522;SHT31;53349;53.538;8.584;2022-12-18T07:45:36;-5.17;76.68
66522;SHT31;53349;53.538;8.584;2022-12-18T07:48:01;-5.16;76.67
66522;SHT31;53349;53.538;8.584;2022-12-18T07:50:27;-5.16;76.67
66522;SHT31;53349;53.538;8.584;2022-12-18T07:52:52;-5.13;76.74
66522;SHT31;53349;53.538;8.584;2022-12-18T07:55:17;-5.12;76.70
66522;SHT31;53349;53.538;8.584;2022-12-18T07:57:43;-5.07;76.71
66522;SHT31;53349;53.538;8.584;2022-12-18T08:00:09;-5.03;76.59
66522;SHT31;53349;53.538;8.584;2022-12-18T08:02:35;-4.99;76.59
66522;SHT31;53349;53.538;8.584;2022-12-18T08:05:00;-5.02;76.41
66522;SHT31;53349;53.538;8.584;2022-12-18T08:07:25;-5.06;76.38
66522;SHT31;53349;53.538;8.584;2022-12-18T08:09:51;-5.03;76.30
66522;SHT31;53349;53.538;8.584;2022-12-18T08:12:16;-5.06;76.31
66522;SHT31;53349;53.538;8.584;2022-12-18T08:14:42;-5.03;76.30
66522;SHT31;53349;53.538;8.584;2022-12-18T08:17:07;-5.05;76.35
66522;SHT31;53349;53.538;8.584;2022-12-18T08:19:33;-5.03;76.37
66522;SHT31;53349;53.538;8.584;2022-12-18T08:21:58;-5.02;76.34
66522;SHT31;53349;53.538;8.584;2022-12-18T08:24:24;-4.97;76.29
66522;SHT31;53349;53.538;8.584;2022-12-18T08:26:49;-4.96;76.21
66522;SHT31;53349;53.538;8.584;2022-12-18T08:29:15;-4.89;76.18
66522;SHT31;53349;53.538;8.584;2022-12-18T08:31:41;-4.88;76.14
66522;SHT31;53349;53.538;8.584;2022-12-18T08:34:07;-4.89;76.23
66522;SHT31;53349;53.538;8.584;2022-12-18T08:36:33;-4.82;76.25
66522;SHT31;53349;53.538;8.584;2022-12-18T08:38:58;-4.82;76.21
66522;SHT31;53349;53.538;8.584;2022-12-18T08:41:24;-4.79;76.18
66522;SHT31;53349;53.538;8.584;2022-12-18T08:43:49;-4.75;76.19
66522;SHT31;53349;53.538;8.584;2022-12-18T08:46:36;-4.72;76.22
66522;SHT31;53349;53.538;8.584;2022-12-18T08:49:03;-4.68;76.25
66522;SHT31;53349;53.538;8.584;2022-12-18T08:51:29;-4.62;76.22
66522;SHT31;53349;53.538;8.584;2022-12-18T08:53:54;-4.55;76.08
66522;SHT31;53349;53.538;8.584;2022-12-18T08:56:21;-4.52;75.91
66522;SHT31;53349;53.538;8.584;2022-12-18T08:58:46;-4.51;75.90
66522;SHT31;53349;53.538;8.584;2022-12-18T09:01:12;-4.50;75.98
66522;SHT31;53349;53.538;8.584;2022-12-18T09:03:39;-4.44;75.87
66522;SHT31;53349;53.538;8.584;2022-12-18T09:06:05;-4.42;75.97
66522;SHT31;53349;53.538;8.584;2022-12-18T09:08:34;-4.31;75.98
66522;SHT31;53349;53.538;8.584;2022-12-18T09:10:59;-4.24;75.85
66522;SHT31;53349;53.538;8.584;2022-12-18T09:13:25;-4.21;75.52
66522;SHT31;53349;53.538;8.584;2022-12-18T09:15:52;-4.17;75.61
66522;SHT31;53349;53.538;8.584;2022-12-18T09:18:19;-4.09;75.68
66522;SHT31;53349;53.538;8.584;2022-12-18T09:20:45;-4.03;75.61
66522;SHT31;53349;53.538;8.584;2022-12-18T09:23:12;-3.99;75.44
66522;SHT31;53349;53.538;8.584;2022-12-18T09:25:39;-3.93;75.31
66522;SHT31;53349;53.538;8.584;2022-12-18T09:28:16;-3.85;75.36
66522;SHT31;53349;53.538;8.584;2022-12-18T09:30:46;-3.82;75.09
66522;SHT31;53349;53.538;8.584;2022-12-18T09:33:12;-3.75;75.14
66522;SHT31;53349;53.538;8.584;2022-12-18T09:35:40;-3.75;75.22
66522;SHT31;53349;53.538;8.584;2022-12-18T09:38:06;-3.73;75.07
66522;SHT31;53349;53.538;8.584;2022-12-18T09:40:40;-3.71;75.00
66522;SHT31;53349;53.538;8.584;2022-12-18T09:43:13;-3.63;75.11
66522;SHT31;53349;53.538;8.584;2022-12-18T09:45:47;-3.63;75.02
66522;SHT31;53349;53.538;8.584;2022-12-18T09:48:46;-3.55;75.16
66522;SHT31;53349;53.538;8.584;2022-12-18T09:51:19;-3.49;74.95
66522;SHT31;53349;53.538;8.584;2022-12-18T09:53:52;-3.42;74.90
66522;SHT31;53349;53.538;8.584;2022-12-18T09:56:19;-3.27;74.76
66522;SHT31;53349;53.538;8.584;2022-12-18T09:59:21;-3.21;74.53
66522;SHT31;53349;53.538;8.584;2022-12-18T10:01:48;-3.17;74.46
66522;SHT31;53349;53.538;8.584;2022-12-18T10:04:15;-3.14;74.27
66522;SHT31;53349;53.538;8.584;2022-12-18T10:07:12;-3.05;74.32
66522;SHT31;53349;53.538;8.584;2022-12-18T10:10:01;-2.91;74.06
66522;SHT31;53349;53.538;8.584;2022-12-18T10:12:34;-2.56;79.70
66522;SHT31;53349;53.538;8.584;2022-12-18T10:18:22;-2.52;74.03
66522;SHT31;53349;53.538;8.584;2022-12-18T10:20:52;-2.56;73.60
66522;SHT31;53349;53.538;8.584;2022-12-18T10:23:34;-2.59;73.53
66522;SHT31;53349;53.538;8.584;2022-12-18T10:26:06;-2.66;73.50
66522;SHT31;53349;53.538;8.584;2022-12-18T10:28:39;-2.60;73.71
66522;SHT31;53349;53.538;8.584;2022-12-18T10:31:06;-2.58;73.57
66522;SHT31;53349;53.538;8.584;2022-12-18T10:33:33;-2.50;73.41
66522;SHT31;53349;53.538;8.584;2022-12-18T10:36:02;-2.34;73.42
66522;SHT31;53349;53.538;8.584;2022-12-18T10:38:30;-2.22;73.18
66522;SHT31;53349;53.538;8.584;2022-12-18T10:41:08;-2.17;72.95
66522;SHT31;53349;53.538;8.584;2022-12-18T10:44:23;-2.08;72.45
66522;SHT31;53349;53.538;8.584;2022-12-18T10:47:02;-1.97;72.29
66522;SHT31;53349;53.538;8.584;2022-12-18T10:49:33;-1.97;72.07
66522;SHT31;53349;53.538;8.584;2022-12-18T10:52:21;-1.98;71.97
66522;SHT31;53349;53.538;8.584;2022-12-18T10:54:57;-1.94;73.19
66522;SHT31;53349;53.538;8.584;2022-12-18T10:57:43;-1.97;73.72
66522;SHT31;53349;53.538;8.584;2022-12-18T11:00:22;-1.90;74.00
66522;SHT31;53349;53.538;8.584;2022-12-18T11:02:48;-1.88;73.82
66522;SHT31;53349;53.538;8.584;2022-12-18T11:07:53;-1.47;77.95
66522;SHT31;53349;53.538;8.584;2022-12-18T11:10:26;-1.26;77.65
66522;SHT31;53349;53.538;8.584;2022-12-18T11:12:53;-1.25;74.36
66522;SHT31;53349;53.538;8.584;2022-12-18T11:15:27;-1.29;72.77
66522;SHT31;53349;53.538;8.584;2022-12-18T11:17:54;-1.35;72.10
66522;SHT31;53349;53.538;8.584;2022-12-18T11:20:34;-1.45;71.53
66522;SHT31;53349;53.538;8.584;2022-12-18T11:23:12;-1.46;71.82
66522;SHT31;53349;53.538;8.584;2022-12-18T11:25:38;-1.52;71.71
66522;SHT31;53349;53.538;8.584;2022-12-18T11:31:18;-1.66;72.51
66522;SHT31;53349;53.538;8.584;2022-12-18T11:34:11;-1.56;73.40
66522;SHT31;53349;53.538;8.584;2022-12-18T11:36:42;-1.46;73.16
66522;SHT31;53349;53.538;8.584;2022-12-18T11:41:50;-1.50;72.09
66522;SHT31;53349;53.538;8.584;2022-12-18T11:44:51;-1.57;72.24
66522;SHT31;53349;53.538;8.584;2022-12-18T11:47:35;-1.60;72.18
66522;SHT31;53349;53.538;8.584;2022-12-18T11:50:05;-1.63;72.15
66522;SHT31;53349;53.538;8.584;2022-12-18T11:52:39;-1.71;71.96
66522;SHT31;53349;53.538;8.584;2022-12-18T11:55:16;-1.76;72.43
66522;SHT31;53349;53.538;8.584;2022-12-18T12:00:19;-1.71;72.81
66522;SHT31;53349;53.538;8.584;2022-12-18T12:11:56;-1.76;73.23
66522;SHT31;53349;53.538;8.584;2022-12-18T12:14:35;-1.77;73.41
66522;SHT31;53349;53.538;8.584;2022-12-18T12:17:30;-1.81;73.30
66522;SHT31;53349;53.538;8.584;2022-12-18T12:25:37;-1.73;73.63
66522;SHT31;53349;53.538;8.584;2022-12-18T12:28:37;-1.70;73.69
66522;SHT31;53349;53.538;8.584;2022-12-18T12:31:28;-1.73;73.56
66522;SHT31;53349;53.538;8.584;2022-12-18T12:34:08;-1.67;73.19
66522;SHT31;53349;53.538;8.584;2022-12-18T12:37:11;-1.63;73.38
66522;SHT31;53349;53.538;8.584;2022-12-18T12:39:40;-1.62;73.43
66522;SHT31;53349;53.538;8.584;2022-12-18T12:42:41;-1.57;73.46
66522;SHT31;53349;53.538;8.584;2022-12-18T12:45:34;-1.62;73.37
66522;SHT31;53349;53.538;8.584;2022-12-18T12:48:04;-1.59;73.31
66522;SHT31;53349;53.538;8.584;2022-12-18T12:50:33;-1.63;73.44
66522;SHT31;53349;53.538;8.584;2022-12-18T12:53:01;-1.62;73.43
66522;SHT31;53349;53.538;8.584;2022-12-18T12:55:34;-1.59;73.29
66522;SHT31;53349;53.538;8.584;2022-12-18T12:58:06;-1.60;73.51
66522;SHT31;53349;53.538;8.584;2022-12-18T13:00:44;-1.62;73.43
66522;SHT31;53349;53.538;8.584;2022-12-18T13:03:36;-1.63;73.41
66522;SHT31;53349;53.538;8.584;2022-12-18T13:09:01;-1.68;73.29
66522;SHT31;53349;53.538;8.584;2022-12-18T13:11:48;-1.70;73.22
66522;SHT31;53349;53.538;8.584;2022-12-18T13:20:05;-1.71;73.14
66522;SHT31;53349;53.538;8.584;2022-12-18T13:22:35;-1.68;73.31
66522;SHT31;53349;53.538;8.584;2022-12-18T13:25:02;-1.76;73.43
66522;SHT31;53349;53.538;8.584;2022-12-18T13:35:42;-1.62;73.40
66522;SHT31;53349;53.538;8.584;2022-12-18T13:43:34;-1.64;73.58
66522;SHT31;53349;53.538;8.584;2022-12-18T13:46:05;-1.63;73.47
66522;SHT31;53349;53.538;8.584;2022-12-18T13:48:35;-1.67;73.44
66522;SHT31;53349;53.538;8.584;2022-12-18T13:51:09;-1.63;73.58
66522;SHT31;53349;53.538;8.584;2022-12-18T13:54:01;-1.62;73.60
66522;SHT31;53349;53.538;8.584;2022-12-18T13:56:28;-1.59;73.40
66522;SHT31;53349;53.538;8.584;2022-12-18T13:59:18;-1.62;73.31
66522;SHT31;53349;53.538;8.584;2022-12-18T14:04:34;-1.59;73.58
66522;SHT31;53349;53.538;8.584;2022-12-18T14:07:04;-1.47;74.18
66522;SHT31;53349;53.538;8.584;2022-12-18T14:09:36;-1.50;73.11
66522;SHT31;53349;53.538;8.584;2022-12-18T14:12:03;-1.49;72.71
66522;SHT31;53349;53.538;8.584;2022-12-18T14:14:51;-1.56;72.71
66522;SHT31;53349;53.538;8.584;2022-12-18T14:17:17;-1.59;72.80
66522;SHT31;53349;53.538;8.584;2022-12-18T14:19:51;-1.60;72.96
66522;SHT31;53349;53.538;8.584;2022-12-18T14:22:20;-1.64;73.09
66522;SHT31;53349;53.538;8.584;2022-12-18T14:24:47;-1.64;73.12
66522;SHT31;53349;53.538;8.584;2022-12-18T14:27:29;-1.67;73.10
66522;SHT31;53349;53.538;8.584;2022-12-18T14:29:54;-1.64;73.14
66522;SHT31;53349;53.538;8.584;2022-12-18T14:32:20;-1.64;73.03
66522;SHT31;53349;53.538;8.584;2022-12-18T14:34:51;-1.59;72.92
66522;SHT31;53349;53.538;8.584;2022-12-18T14:37:20;-1.60;72.81
66522;SHT31;53349;53.538;8.584;2022-12-18T14:39:58;-1.66;72.80
66522;SHT31;53349;53.538;8.584;2022-12-18T14:42:26;-1.67;72.86
66522;SHT31;53349;53.538;8.584;2022-12-18T14:47:58;-1.64;72.60
66522;SHT31;53349;53.538;8.584;2022-12-18T14:50:24;-1.66;72.39
66522;SHT31;53349;53.538;8.584;2022-12-18T14:52:49;-1.68;72.41
66522;SHT31;53349;53.538;8.584;2022-12-18T14:55:17;-1.67;72.39
66522;SHT31;53349;53.538;8.584;2022-12-18T14:57:43;-1.67;72.33
66522;SHT31;53349;53.538;8.584;2022-12-18T15:00:18;-1.68;72.40
66522;SHT31;53349;53.538;8.584;2022-12-18T15:02:55;-1.68;72.27
66522;SHT31;53349;53.538;8.584;2022-12-18T15:05:29;-1.64;72.26
66522;SHT31;53349;53.538;8.584;2022-12-18T15:07:57;-1.66;72.27
66522;SHT31;53349;53.538;8.584;2022-12-18T15:23:48;-1.53;71.30
66522;SHT31;53349;53.538;8.584;2022-12-18T15:26:17;-1.56;71.32
66522;SHT31;53349;53.538;8.584;2022-12-18T15:28:49;-1.56;71.27
66522;SHT31;53349;53.538;8.584;2022-12-18T15:33:43;-1.50;70.76
66522;SHT31;53349;53.538;8.584;2022-12-18T15:36:15;-1.47;70.77
66522;SHT31;53349;53.538;8.584;2022-12-18T15:38:41;-1.46;70.49
66522;SHT31;53349;53.538;8.584;2022-12-18T15:41:13;-1.45;70.43
66522;SHT31;53349;53.538;8.584;2022-12-18T15:43:40;-1.38;70.45
66522;SHT31;53349;53.538;8.584;2022-12-18T15:46:13;-1.35;69.95
66522;SHT31;53349;53.538;8.584;2022-12-18T15:48:53;-1.31;69.83
66522;SHT31;53349;53.538;8.584;2022-12-18T15:51:29;-1.34;69.65
66522;SHT31;53349;53.538;8.584;2022-12-18T15:53:59;-1.29;69.35
66522;SHT31;53349;53.538;8.584;2022-12-18T15:56:24;-1.29;69.32
66522;SHT31;53349;53.538;8.584;2022-12-18T15:59:11;-1.28;69.14
66522;SHT31;53349;53.538;8.584;2022-12-18T16:01:37;-1.28;69.04
66522;SHT31;53349;53.538;8.584;2022-12-18T16:04:02;-1.22;68.84
66522;SHT31;53349;53.538;8.584;2022-12-18T16:06:28;-1.13;70.64
66522;SHT31;53349;53.538;8.584;2022-12-18T16:08:54;-0.87;73.87
66522;SHT31;53349;53.538;8.584;2022-12-18T16:11:23;-0.78;70.75
66522;SHT31;53349;53.538;8.584;2022-12-18T16:14:35;-0.67;70.13
66522;SHT31;53349;53.538;8.584;2022-12-18T16:17:02;-0.67;69.46
66522;SHT31;53349;53.538;8.584;2022-12-18T16:19:29;-0.75;67.36
66522;SHT31;53349;53.538;8.584;2022-12-18T16:21:56;-0.83;66.85
66522;SHT31;53349;53.538;8.584;2022-12-18T16:24:24;-0.92;66.81
66522;SHT31;53349;53.538;8.584;2022-12-18T16:26:51;-0.98;66.92
66522;SHT31;53349;53.538;8.584;2022-12-18T16:29:17;-1.01;66.75
66522;SHT31;53349;53.538;8.584;2022-12-18T16:31:43;-1.01;66.73
66522;SHT31;53349;53.538;8.584;2022-12-18T16:34:15;-0.95;66.34
66522;SHT31;53349;53.538;8.584;2022-12-18T16:36:43;-0.97;66.14
66522;SHT31;53349;53.538;8.584;2022-12-18T16:39:08;-0.98;66.03
66522;SHT31;53349;53.538;8.584;2022-12-18T16:41:34;-0.99;66.09
66522;SHT31;53349;53.538;8.584;2022-12-18T16:44:00;-0.97;65.89
66522;SHT31;53349;53.538;8.584;2022-12-18T16:46:26;-1.02;65.92
66522;SHT31;53349;53.538;8.584;2022-12-18T16:48:51;-0.99;65.78
66522;SHT31;53349;53.538;8.584;2022-12-18T16:51:17;-1.01;65.54
66522;SHT31;53349;53.538;8.584;2022-12-18T16:53:43;-1.01;65.53
66522;SHT31;53349;53.538;8.584;2022-12-18T16:56:08;-0.97;65.15
66522;SHT31;53349;53.538;8.584;2022-12-18T16:58:33;-0.94;65.11
66522;SHT31;53349;53.538;8.584;2022-12-18T17:00:59;-0.97;65.19
66522;SHT31;53349;53.538;8.584;2022-12-18T17:03:25;-0.91;64.87
66522;SHT31;53349;53.538;8.584;2022-12-18T17:05:50;-0.91;64.55
66522;SHT31;53349;53.538;8.584;2022-12-18T17:08:16;-0.88;64.52
66522;SHT31;53349;53.538;8.584;2022-12-18T17:10:41;-0.88;64.15
66522;SHT31;53349;53.538;8.584;2022-12-18T17:13:06;-0.84;64.20
66522;SHT31;53349;53.538;8.584;2022-12-18T17:15:36;-0.85;64.35
66522;SHT31;53349;53.538;8.584;2022-12-18T17:18:02;-0.87;64.36